Time;durP1;ratioP1;P1;durP2;ratioP2;P2;SDS_P1;SDS_P2;PMS_P1;PMS_P2;Temp;Humidity;BMP_temperature;BMP_pressure;BME280_temperature;BME280_humidity;BME280_pressure;Samples;Min_cycle;Max_cycle;Signal;HPM_P1;HPM_P2
2022/07/21 00:00:18;;;;;;;25.30;23.37;;;19.90;99.90;;;;;;4955602;28;20227;-79
2022/07/21 00:02:45;;;;;;;26.47;24.37;;;19.90;99.90;;;;;;4956833;29;20206;-79
2022/07/21 00:05:12;;;;;;;25.43;23.43;;;20.00;99.90;;;;;;4955289;28;20686;-79
2022/07/21 00:07:39;;;;;;;25.73;23.67;;;19.90;99.90;;;;;;4955548;29;20217;-79
2022/07/21 00:10:08;;;;;;;24.83;22.67;;;19.90;99.90;;;;;;4956699;28;20256;-79
2022/07/21 00:12:35;;;;;;;26.30;24.13;;;19.90;99.90;;;;;;4955476;29;20256;-79
2022/07/21 00:15:02;;;;;;;26.60;24.40;;;20.00;99.90;;;;;;4955495;28;20193;-80
2022/07/21 00:17:29;;;;;;;25.17;23.27;;;20.00;99.90;;;;;;4956292;29;20616;-79
2022/07/21 00:19:56;;;;;;;25.40;23.30;;;20.00;99.90;;;;;;4954745;28;20249;-79
2022/07/21 00:22:23;;;;;;;27.67;25.27;;;20.00;99.90;;;;;;4955057;29;20227;-79
2022/07/21 00:24:50;;;;;;;25.37;23.37;;;20.10;99.90;;;;;;4954786;29;20308;-79
2022/07/21 00:27:18;;;;;;;24.10;22.20;;;20.10;99.90;;;;;;4955087;29;20210;-79
2022/07/21 00:29:45;;;;;;;24.47;22.57;;;20.10;99.90;;;;;;4955221;28;20259;-79
2022/07/21 00:32:12;;;;;;;24.53;22.53;;;20.10;99.90;;;;;;4955174;29;20267;-79
2022/07/21 00:34:38;;;;;;;24.63;22.70;;;20.10;99.90;;;;;;4956677;29;20227;-79
2022/07/21 00:37:05;;;;;;;24.80;22.80;;;20.10;99.90;;;;;;4956327;29;20260;-80
2022/07/21 00:39:32;;;;;;;27.03;24.83;;;20.10;99.90;;;;;;4954774;28;20228;-79
2022/07/21 00:41:59;;;;;;;25.33;23.13;;;20.10;99.90;;;;;;4956110;28;20206;-79
2022/07/21 00:44:28;;;;;;;26.00;23.93;;;20.10;99.90;;;;;;4955866;29;20268;-79
2022/07/21 00:46:56;;;;;;;24.97;22.97;;;20.10;99.90;;;;;;4955251;29;20279;-79
2022/07/21 00:49:23;;;;;;;25.63;23.53;;;20.10;99.90;;;;;;4956238;28;20229;-79
2022/07/21 00:51:50;;;;;;;23.70;21.80;;;20.10;99.90;;;;;;4955579;29;20257;-79
2022/07/21 00:54:18;;;;;;;24.60;22.70;;;20.10;99.90;;;;;;4954209;29;20256;-79
2022/07/21 00:56:46;;;;;;;24.53;22.47;;;20.20;99.90;;;;;;4954241;29;20615;-79
2022/07/21 00:59:13;;;;;;;24.07;22.07;;;20.20;99.90;;;;;;4954052;28;20212;-78
2022/07/21 01:01:41;;;;;;;22.43;20.73;;;20.20;99.90;;;;;;4954225;29;20206;-79
2022/07/21 01:04:08;;;;;;;24.23;22.03;;;20.20;99.90;;;;;;4955064;29;20217;-79
2022/07/21 01:06:35;;;;;;;22.90;21.03;;;20.20;99.90;;;;;;4955672;29;20273;-80
2022/07/21 01:09:02;;;;;;;24.03;22.13;;;20.20;99.90;;;;;;4954089;29;20675;-79
2022/07/21 01:11:30;;;;;;;23.20;21.40;;;20.20;99.90;;;;;;4955319;28;20281;-79
2022/07/21 01:13:57;;;;;;;23.70;21.83;;;20.20;99.90;;;;;;4955499;28;20199;-80
2022/07/21 01:16:24;;;;;;;21.77;19.90;;;20.20;99.90;;;;;;4956008;28;20209;-79
2022/07/21 01:18:52;;;;;;;21.57;19.87;;;20.20;99.90;;;;;;4955669;29;20643;-79
2022/07/21 01:21:30;;;;;;;21.80;20.13;;;20.10;99.90;;;;;;4954688;28;20226;-79
2022/07/21 01:23:58;;;;;;;21.20;19.50;;;20.10;99.90;;;;;;4955118;29;20268;-79
2022/07/21 01:26:25;;;;;;;20.53;18.83;;;20.00;99.90;;;;;;4953756;28;20213;-79
2022/07/21 01:28:52;;;;;;;19.67;18.23;;;20.00;99.90;;;;;;4955840;29;20202;-79
2022/07/21 01:31:19;;;;;;;20.10;18.50;;;20.00;99.90;;;;;;4953972;28;20229;-79
2022/07/21 01:33:46;;;;;;;20.87;18.97;;;19.90;99.90;;;;;;4953660;29;20212;-79
2022/07/21 01:36:13;;;;;;;19.73;18.23;;;20.00;99.90;;;;;;4955439;29;20224;-79
2022/07/21 01:41:33;;;;;;;19.37;17.87;;;19.90;99.90;;;;;;4960633;28;20238;-80
2022/07/21 01:44:02;;;;;;;20.47;18.77;;;19.90;99.90;;;;;;4953406;29;20227;-79
2022/07/21 01:46:30;;;;;;;19.07;17.60;;;19.90;99.90;;;;;;4953994;29;20204;-79
2022/07/21 01:48:57;;;;;;;19.80;18.20;;;19.90;99.90;;;;;;4953800;29;20205;-79
2022/07/21 01:51:24;;;;;;;19.57;17.97;;;19.90;99.90;;;;;;4954053;28;20240;-79
2022/07/21 01:53:52;;;;;;;18.20;16.80;;;19.90;99.90;;;;;;4955227;28;20190;-79
2022/07/21 01:56:21;;;;;;;18.23;16.67;;;19.90;99.90;;;;;;4955201;29;20205;-79
2022/07/21 01:58:49;;;;;;;18.03;16.70;;;19.80;99.90;;;;;;4953706;29;20207;-79
2022/07/21 02:01:17;;;;;;;18.37;16.97;;;19.80;99.90;;;;;;4954239;28;20225;-79
2022/07/21 02:03:44;;;;;;;19.17;17.47;;;19.80;99.90;;;;;;4953650;29;20226;-80
2022/07/21 02:06:11;;;;;;;19.00;17.40;;;19.80;99.90;;;;;;4947365;29;20193;-79
2022/07/21 02:08:38;;;;;;;18.67;17.27;;;19.70;99.90;;;;;;4954066;29;20209;-79
2022/07/21 02:11:07;;;;;;;18.97;17.40;;;19.70;99.90;;;;;;4953811;28;20228;-79
2022/07/21 02:13:33;;;;;;;18.10;16.70;;;19.70;99.90;;;;;;4955277;29;20275;-79
2022/07/21 02:16:00;;;;;;;17.10;15.80;;;19.60;99.90;;;;;;4955185;29;20265;-79
2022/07/21 02:18:27;;;;;;;18.20;16.90;;;19.70;99.90;;;;;;4955624;29;20281;-79
2022/07/21 02:20:54;;;;;;;18.50;17.10;;;19.60;99.90;;;;;;4954027;28;20271;-80
2022/07/21 02:23:21;;;;;;;17.90;16.63;;;19.70;99.90;;;;;;4953628;29;20208;-79
2022/07/21 02:25:48;;;;;;;18.60;17.10;;;19.70;99.90;;;;;;4953990;29;20224;-80
2022/07/21 02:28:16;;;;;;;17.83;16.53;;;19.60;99.90;;;;;;4954641;29;20225;-80
2022/07/21 02:30:43;;;;;;;17.87;16.57;;;19.60;99.90;;;;;;4953818;28;20236;-80
2022/07/21 02:33:10;;;;;;;16.97;15.77;;;19.70;99.90;;;;;;4947470;29;20283;-79
2022/07/21 02:35:37;;;;;;;17.97;16.60;;;19.60;99.90;;;;;;4955422;29;20285;-80
2022/07/21 02:38:04;;;;;;;17.63;16.33;;;19.60;99.90;;;;;;4953637;29;21165;-80
2022/07/21 02:40:32;;;;;;;18.37;16.87;;;19.70;99.90;;;;;;4955312;28;20224;-79
2022/07/21 02:42:59;;;;;;;17.83;16.43;;;19.60;99.90;;;;;;4953515;29;20195;-80
2022/07/21 02:45:27;;;;;;;18.33;16.93;;;19.60;99.90;;;;;;4955640;28;20219;-80
2022/07/21 02:47:55;;;;;;;18.20;16.80;;;19.60;99.90;;;;;;4954414;29;20267;-82
2022/07/21 02:50:23;;;;;;;18.37;16.97;;;19.60;99.90;;;;;;4954242;28;20282;-80
2022/07/21 02:52:50;;;;;;;17.27;16.07;;;19.60;99.90;;;;;;4949521;28;20194;-78
2022/07/21 02:55:17;;;;;;;17.67;16.37;;;19.60;99.90;;;;;;4969083;28;20199;-78
2022/07/21 02:57:44;;;;;;;18.63;17.23;;;19.60;99.90;;;;;;4953988;29;20211;-78
2022/07/21 03:00:12;;;;;;;19.00;17.70;;;19.60;99.90;;;;;;4955863;28;20733;-78
2022/07/21 03:02:40;;;;;;;18.03;16.57;;;19.60;99.90;;;;;;4969574;28;20205;-78
2022/07/21 03:05:07;;;;;;;17.40;16.20;;;19.60;99.90;;;;;;4953269;29;20283;-79
2022/07/21 03:07:34;;;;;;;18.63;17.23;;;19.50;99.90;;;;;;4970482;28;20227;-78
2022/07/21 03:10:01;;;;;;;17.73;16.43;;;19.50;99.90;;;;;;4956015;28;20299;-78
2022/07/21 03:12:28;;;;;;;18.80;17.30;;;19.50;99.90;;;;;;4951038;29;20206;-78
2022/07/21 03:14:54;;;;;;;18.47;17.17;;;19.50;99.90;;;;;;4955143;29;20200;-78
2022/07/21 03:17:21;;;;;;;18.70;17.20;;;19.50;99.90;;;;;;4957056;29;20205;-80
2022/07/21 03:19:49;;;;;;;17.50;16.20;;;19.40;99.90;;;;;;4953571;28;20228;-80
2022/07/21 03:22:16;;;;;;;17.83;16.63;;;19.40;99.90;;;;;;4956561;29;20654;-81
2022/07/21 03:24:43;;;;;;;17.47;16.27;;;19.40;99.90;;;;;;4956959;29;20701;-80
2022/07/21 03:27:09;;;;;;;16.87;15.70;;;19.40;99.90;;;;;;4949101;29;20196;-78
2022/07/21 03:29:36;;;;;;;17.60;16.40;;;19.40;99.90;;;;;;4955847;28;20274;-81
2022/07/21 03:32:03;;;;;;;17.77;16.47;;;19.40;99.90;;;;;;4956093;29;20209;-80
2022/07/21 03:34:30;;;;;;;17.97;16.67;;;19.40;99.90;;;;;;4957045;29;20200;-81
2022/07/21 03:36:58;;;;;;;17.20;15.93;;;19.30;99.90;;;;;;4956016;29;20669;-81
2022/07/21 03:39:25;;;;;;;17.33;16.03;;;19.30;99.90;;;;;;4956516;28;20208;-81
2022/07/21 03:41:52;;;;;;;18.73;17.43;;;19.20;99.90;;;;;;4955605;29;20208;-81
2022/07/21 03:44:19;;;;;;;18.60;17.30;;;19.20;99.90;;;;;;4955459;29;20246;-80
2022/07/21 03:46:45;;;;;;;18.83;17.43;;;19.20;99.90;;;;;;4956721;28;20200;-81
2022/07/21 03:49:12;;;;;;;19.33;17.90;;;19.10;99.90;;;;;;4956177;28;20250;-81
2022/07/21 03:51:39;;;;;;;19.63;18.20;;;19.20;99.90;;;;;;4961500;29;20212;-81
2022/07/21 03:54:07;;;;;;;19.77;18.33;;;19.20;99.90;;;;;;4960410;29;20195;-81
2022/07/21 03:56:34;;;;;;;19.30;17.90;;;19.30;99.90;;;;;;4959536;29;20203;-81
2022/07/21 03:59:01;;;;;;;19.80;18.37;;;19.30;99.90;;;;;;4960933;29;20664;-80
2022/07/21 04:01:27;;;;;;;18.47;17.17;;;19.30;99.90;;;;;;4960822;28;20222;-80
2022/07/21 04:03:54;;;;;;;18.90;17.57;;;19.30;99.90;;;;;;4959651;28;20206;-81
2022/07/21 04:06:21;;;;;;;18.17;16.87;;;19.30;99.90;;;;;;4959088;29;20230;-81
2022/07/21 04:08:48;;;;;;;18.20;17.00;;;19.40;99.90;;;;;;4959020;29;20678;-81
2022/07/21 04:11:16;;;;;;;17.90;16.70;;;19.50;99.90;;;;;;4961135;28;20233;-81
2022/07/21 04:13:43;;;;;;;18.10;16.80;;;19.50;99.90;;;;;;4966123;29;20225;-80
2022/07/21 04:16:10;;;;;;;18.63;17.30;;;19.50;99.90;;;;;;4965943;29;20247;-81
2022/07/21 04:18:36;;;;;;;17.47;16.27;;;19.50;99.90;;;;;;4962393;29;20200;-81
2022/07/21 04:21:03;;;;;;;18.90;17.47;;;19.50;99.90;;;;;;4965278;28;20246;-80
2022/07/21 04:23:31;;;;;;;17.30;16.10;;;19.60;99.90;;;;;;4967335;29;20657;-80
2022/07/21 04:25:58;;;;;;;18.50;17.10;;;19.60;99.90;;;;;;4967040;29;20230;-81
2022/07/21 04:28:26;;;;;;;18.37;16.97;;;19.60;99.90;;;;;;4965362;29;20200;-80
2022/07/21 04:30:53;;;;;;;17.87;16.57;;;19.60;99.90;;;;;;4966196;28;20228;-81
2022/07/21 04:33:20;;;;;;;19.47;18.07;;;19.70;99.90;;;;;;4964892;29;20211;-82
2022/07/21 04:35:47;;;;;;;19.20;17.60;;;19.60;99.90;;;;;;4969524;28;20192;-81
2022/07/21 04:38:14;;;;;;;19.27;17.80;;;19.70;99.90;;;;;;4966387;29;20207;-80
2022/07/21 04:40:41;;;;;;;18.67;17.37;;;19.70;99.90;;;;;;4966179;28;20225;-80
2022/07/21 04:43:08;;;;;;;18.50;17.20;;;19.70;99.90;;;;;;4965144;29;20256;-82
2022/07/21 04:45:36;;;;;;;18.77;17.47;;;19.70;99.90;;;;;;4967848;29;20242;-81
2022/07/21 04:48:03;;;;;;;18.80;17.40;;;19.80;99.90;;;;;;4964528;29;20685;-81
2022/07/21 04:50:32;;;;;;;17.87;16.67;;;19.80;99.90;;;;;;4965939;28;20235;-81
2022/07/21 04:52:59;;;;;;;18.37;17.10;;;19.80;99.90;;;;;;4960892;28;20565;-81
2022/07/21 04:55:27;;;;;;;18.33;17.10;;;19.90;99.90;;;;;;4965981;29;20691;-80
2022/07/21 04:57:54;;;;;;;16.70;15.50;;;20.00;99.90;;;;;;4971159;29;20201;-80
2022/07/21 05:00:24;;;;;;;10.83;9.73;;;20.00;99.90;;;;;;4972681;28;20229;-80
2022/07/21 05:02:53;;;;;;;10.47;9.53;;;20.10;99.90;;;;;;4970145;29;20260;-81
2022/07/21 05:05:20;;;;;;;12.10;10.90;;;20.10;99.90;;;;;;4969042;29;20265;-81
2022/07/21 05:07:48;;;;;;;11.70;10.60;;;20.10;99.90;;;;;;4962685;29;20753;-81
2022/07/21 05:10:16;;;;;;;11.03;9.80;;;20.10;99.90;;;;;;4957870;28;20230;-81
2022/07/21 05:12:43;;;;;;;12.30;11.10;;;20.10;99.90;;;;;;4958746;29;20265;-81
2022/07/21 05:15:12;;;;;;;11.40;10.30;;;20.20;99.90;;;;;;4949163;29;20621;-81
2022/07/21 05:17:39;;;;;;;11.13;10.13;;;20.30;99.90;;;;;;4958753;29;20583;-81
2022/07/21 05:20:09;;;;;;;14.20;12.90;;;20.40;99.90;;;;;;4957983;28;20226;-80
2022/07/21 05:22:35;;;;;;;10.77;9.77;;;20.50;99.90;;;;;;4957341;29;20208;-81
2022/07/21 05:25:02;;;;;;;12.47;11.20;;;20.60;99.90;;;;;;4956774;29;20218;-80
2022/07/21 05:27:29;;;;;;;17.23;15.93;;;20.70;99.90;;;;;;4958742;29;20679;-81
2022/07/21 05:29:56;;;;;;;11.77;10.67;;;20.80;99.90;;;;;;4958044;28;20229;-81
2022/07/21 05:32:23;;;;;;;11.00;9.90;;;20.90;99.90;;;;;;4957108;29;20687;-82
2022/07/21 05:34:49;;;;;;;11.07;10.07;;;21.00;99.90;;;;;;4957615;29;20675;-81
2022/07/21 05:37:17;;;;;;;18.47;16.97;;;21.20;99.90;;;;;;4957031;29;20201;-81
2022/07/21 05:39:44;;;;;;;19.13;17.53;;;21.30;99.90;;;;;;4956782;28;20230;-81
2022/07/21 05:42:11;;;;;;;17.90;16.57;;;21.50;99.90;;;;;;4957116;29;20633;-81
2022/07/21 05:44:38;;;;;;;19.60;18.00;;;21.70;99.90;;;;;;4956793;29;20198;-82
2022/07/21 05:47:05;;;;;;;18.53;17.13;;;21.80;99.90;;;;;;4956469;29;20652;-82
2022/07/21 05:49:32;;;;;;;18.87;17.37;;;22.00;99.90;;;;;;4957933;28;20222;-82
2022/07/21 05:51:58;;;;;;;17.30;16.10;;;22.20;99.90;;;;;;4956908;29;20203;-81
2022/07/21 05:54:27;;;;;;;16.20;14.90;;;22.50;99.90;;;;;;4957612;29;20198;-81
2022/07/21 05:56:53;;;;;;;18.27;16.97;;;23.00;99.90;;;;;;4957148;29;20709;-81
2022/07/21 05:59:20;;;;;;;17.30;16.00;;;23.50;99.90;;;;;;4958589;28;20238;-82
2022/07/21 06:01:47;;;;;;;16.00;14.80;;;24.00;99.90;;;;;;4957889;29;20198;-82
2022/07/21 06:04:14;;;;;;;14.87;13.77;;;24.40;99.90;;;;;;4958255;29;20202;-81
2022/07/21 06:06:40;;;;;;;15.03;13.83;;;24.60;99.90;;;;;;4957864;28;20210;-82
2022/07/21 06:09:07;;;;;;;14.53;13.33;;;24.70;99.90;;;;;;4958501;29;20186;-82
2022/07/21 06:11:36;;;;;;;13.83;12.70;;;24.70;99.90;;;;;;4956242;28;20210;-82
2022/07/21 06:14:02;;;;;;;12.67;11.57;;;24.90;99.90;;;;;;4956117;29;20206;-79
2022/07/21 06:16:29;;;;;;;9.60;8.70;;;25.00;99.90;;;;;;4954991;29;20250;-79
2022/07/21 06:18:56;;;;;;;9.20;8.27;;;25.20;99.90;;;;;;4958545;29;20615;-82
2022/07/21 06:21:23;;;;;;;8.87;8.03;;;25.20;99.90;;;;;;4958157;28;20222;-82
2022/07/21 06:23:49;;;;;;;10.47;9.57;;;25.10;99.90;;;;;;4957901;29;20619;-82
2022/07/21 06:26:16;;;;;;;10.13;9.13;;;24.90;99.90;;;;;;4958244;29;20430;-82
2022/07/21 06:28:44;;;;;;;9.80;8.90;;;24.70;99.90;;;;;;4957046;29;20210;-82
2022/07/21 06:31:11;;;;;;;11.13;10.13;;;24.70;99.90;;;;;;4956168;28;20227;-82
2022/07/21 06:33:38;;;;;;;11.07;9.97;;;24.90;99.90;;;;;;4955764;29;20242;-82
2022/07/21 06:36:06;;;;;;;10.50;9.50;;;25.00;99.90;;;;;;4957331;29;20637;-82
2022/07/21 06:38:33;;;;;;;10.20;9.10;;;25.20;99.90;;;;;;4956295;29;20202;-83
2022/07/21 06:41:00;;;;;;;9.87;7.90;;;25.50;99.90;;;;;;4957270;28;20221;-82
2022/07/21 06:43:27;;;;;;;8.87;7.63;;;25.60;99.90;;;;;;4956470;29;20198;-82
2022/07/21 06:45:56;;;;;;;8.83;7.70;;;25.80;99.90;;;;;;4956072;29;20273;-82
2022/07/21 06:48:23;;;;;;;8.90;8.00;;;26.30;99.90;;;;;;4951505;29;20738;-83
2022/07/21 06:50:50;;;;;;;8.00;7.30;;;26.50;99.90;;;;;;4958243;28;20635;-82
2022/07/21 06:53:17;;;;;;;8.50;7.50;;;26.50;99.90;;;;;;4956158;29;20199;-82
2022/07/21 06:55:44;;;;;;;8.50;7.47;;;26.10;99.90;;;;;;4958220;29;20203;-83
2022/07/21 06:58:12;;;;;;;8.30;7.50;;;25.70;99.90;;;;;;4956115;29;20198;-82
2022/07/21 07:00:39;;;;;;;8.17;7.37;;;25.40;99.90;;;;;;4955447;28;20790;-82
2022/07/21 07:03:07;;;;;;;8.03;7.23;;;25.70;99.90;;;;;;4955713;29;20625;-81
2022/07/21 07:05:34;;;;;;;8.40;7.53;;;26.30;99.90;;;;;;4956766;29;20261;-82
2022/07/21 07:08:02;;;;;;;8.07;7.30;;;26.70;99.90;;;;;;4957052;28;20199;-83
2022/07/21 07:10:28;;;;;;;7.83;7.13;;;27.10;99.90;;;;;;4957649;28;20224;-83
2022/07/21 07:12:55;;;;;;;7.83;6.93;;;27.20;99.90;;;;;;4956343;29;20587;-82
2022/07/21 07:15:23;;;;;;;7.43;6.70;;;27.50;99.90;;;;;;4955341;29;20258;-82
2022/07/21 07:17:49;;;;;;;9.23;8.50;;;27.50;99.90;;;;;;4957174;29;20230;-83
2022/07/21 07:20:18;;;;;;;10.40;8.57;;;26.90;99.90;;;;;;4956231;28;20222;-83
2022/07/21 07:22:45;;;;;;;8.93;8.03;;;26.70;99.90;;;;;;4957589;28;20198;-82
2022/07/21 07:25:11;;;;;;;8.63;7.60;;;26.60;99.90;;;;;;4958880;28;20202;-83
2022/07/21 07:27:38;;;;;;;11.13;10.30;;;26.60;99.90;;;;;;4961406;29;20652;-82
2022/07/21 07:30:06;;;;;;;11.07;10.17;;;26.30;99.90;;;;;;4961434;28;20245;-82
2022/07/21 07:32:33;;;;;;;12.53;11.53;;;26.20;99.90;;;;;;4959632;29;20635;-83
2022/07/21 07:35:00;;;;;;;12.77;11.77;;;26.20;99.90;;;;;;4960904;29;20195;-83
2022/07/21 07:37:28;;;;;;;11.43;10.53;;;26.00;99.90;;;;;;4959567;29;20226;-82
2022/07/21 07:39:55;;;;;;;8.93;8.03;;;25.80;99.90;;;;;;4959914;28;20285;-82
2022/07/21 07:42:22;;;;;;;9.23;8.33;;;25.50;99.90;;;;;;4959753;29;20207;-82
2022/07/21 07:44:49;;;;;;;9.13;8.27;;;25.40;99.90;;;;;;4959465;29;20417;-82
2022/07/21 07:47:15;;;;;;;9.60;8.33;;;25.70;99.90;;;;;;4959576;29;20351;-83
2022/07/21 07:49:42;;;;;;;9.40;8.47;;;26.00;99.90;;;;;;4959647;28;20223;-82
2022/07/21 07:52:10;;;;;;;9.17;7.37;;;26.70;99.90;;;;;;4967861;28;20203;-82
2022/07/21 07:54:38;;;;;;;9.30;8.10;;;27.40;99.90;;;;;;4958894;29;20230;-82
2022/07/21 07:57:05;;;;;;;9.73;8.93;;;27.30;99.90;;;;;;4958734;29;20684;-83
2022/07/21 07:59:31;;;;;;;9.60;8.80;;;27.30;99.90;;;;;;4958905;28;20661;-82
2022/07/21 08:01:58;;;;;;;10.70;9.60;;;27.60;99.90;;;;;;4959027;29;20206;-83
2022/07/21 08:04:25;;;;;;;9.70;8.80;;;27.90;99.90;;;;;;4958656;29;20652;-82
2022/07/21 08:06:52;;;;;;;11.63;10.77;;;27.80;99.90;;;;;;4959221;29;20586;-82
2022/07/21 08:09:19;;;;;;;9.20;8.43;;;28.20;99.90;;;;;;4959064;28;20202;-83
2022/07/21 08:11:47;;;;;;;9.73;8.77;;;28.60;99.90;;;;;;4955501;29;20266;-82
2022/07/21 08:14:21;;;;;;;7.60;6.97;;;28.80;99.90;;;;;;4959474;29;20250;-82
2022/07/21 08:16:48;;;;;;;9.97;9.13;;;29.00;99.90;;;;;;4960541;29;20210;-82
2022/07/21 08:19:14;;;;;;;11.73;10.70;;;29.30;99.90;;;;;;4959475;28;20198;-82
2022/07/21 08:21:41;;;;;;;10.73;9.90;;;29.60;99.90;;;;;;4959214;29;20213;-83
2022/07/21 08:24:09;;;;;;;11.23;10.33;;;29.20;99.90;;;;;;4958929;29;20258;-83
2022/07/21 08:26:35;;;;;;;10.67;9.87;;;29.70;99.90;;;;;;4960268;28;20301;-83
2022/07/21 08:29:04;;;;;;;11.37;10.37;;;30.20;99.90;;;;;;4958806;29;20237;-83
2022/07/21 08:31:31;;;;;;;10.33;9.43;;;30.30;99.90;;;;;;4959110;28;20237;-83
2022/07/21 08:33:58;;;;;;;11.50;10.40;;;30.70;99.90;;;;;;4958466;29;20649;-83
2022/07/21 08:36:24;;;;;;;11.00;10.07;;;30.80;99.90;;;;;;4958319;28;20679;-83
2022/07/21 08:38:51;;;;;;;11.00;10.10;;;30.80;99.90;;;;;;4958997;29;20206;-83
2022/07/21 08:41:18;;;;;;;10.80;10.00;;;30.80;99.90;;;;;;4960141;28;20226;-82
2022/07/21 08:43:47;;;;;;;11.17;10.20;;;30.40;99.90;;;;;;4959877;29;20687;-83
2022/07/21 08:46:16;;;;;;;11.07;10.17;;;30.30;99.90;;;;;;4959842;29;20297;-83
2022/07/21 08:48:43;;;;;;;10.90;10.00;;;30.40;99.90;;;;;;4958913;29;20206;-83
2022/07/21 08:51:10;;;;;;;10.87;10.07;;;30.50;99.90;;;;;;4950804;29;20755;-82
2022/07/21 08:53:37;;;;;;;11.00;10.10;;;30.30;99.90;;;;;;4959701;28;20664;-83
2022/07/21 08:56:04;;;;;;;9.07;8.33;;;30.30;99.90;;;;;;4958103;29;20202;-82
2022/07/21 08:58:31;;;;;;;11.27;10.33;;;30.50;99.90;;;;;;4958400;29;20258;-83
2022/07/21 09:00:58;;;;;;;10.83;10.03;;;30.60;99.90;;;;;;4957916;28;20254;-82
2022/07/21 09:03:29;;;;;;;10.83;9.93;;;30.50;99.90;;;;;;4958114;29;20230;-83
2022/07/21 09:06:06;;;;;;;11.07;10.20;;;30.50;99.90;;;;;;4959824;29;20258;-84
2022/07/21 09:08:35;;;;;;;10.47;9.77;;;30.50;99.90;;;;;;4957898;29;20296;-83
2022/07/21 09:11:13;;;;;;;11.13;10.23;;;30.90;99.90;;;;;;4958031;28;20250;-83
2022/07/21 09:13:40;;;;;;;11.17;10.33;;;31.20;99.90;;;;;;4958938;29;20572;-84
2022/07/21 09:16:08;;;;;;;11.47;10.57;;;31.50;99.90;;;;;;4957955;29;20199;-83
2022/07/21 09:18:48;;;;;;;10.50;9.60;;;31.60;99.90;;;;;;4959020;29;20202;-83
2022/07/21 09:21:17;;;;;;;9.40;8.60;;;31.60;99.90;;;;;;4952174;29;20222;-83
2022/07/21 09:23:44;;;;;;;10.03;9.33;;;31.00;99.90;;;;;;4959470;28;20595;-83
2022/07/21 09:26:11;;;;;;;9.13;8.40;;;30.50;99.90;;;;;;4957623;29;20218;-83
2022/07/21 09:28:37;;;;;;;8.70;7.90;;;30.50;99.90;;;;;;4959418;28;20611;-83
2022/07/21 09:31:06;;;;;;;8.73;8.00;;;30.20;99.90;;;;;;4956851;28;20230;-82
2022/07/21 09:33:36;;;;;;;9.90;9.10;;;30.20;99.90;;;;;;4969663;28;20265;-82
2022/07/21 09:36:08;;;;;;;10.47;9.00;;;30.80;99.90;;;;;;4970177;28;20245;-82
2022/07/21 09:38:37;;;;;;;8.20;7.60;;;31.30;99.90;;;;;;4958287;29;20199;-83
2022/07/21 09:41:11;;;;;;;9.87;9.10;;;31.80;99.90;;;;;;4963868;28;20226;-83
2022/07/21 09:43:44;;;;;;;10.47;9.57;;;32.20;99.90;;;;;;4956822;29;20648;-84
2022/07/21 09:46:14;;;;;;;9.90;9.20;;;32.40;99.90;;;;;;4952337;28;20211;-82
2022/07/21 09:48:45;;;;;;;10.30;9.50;;;32.40;99.80;;;;;;4954667;29;20261;-81
2022/07/21 09:51:29;;;;;;;9.73;8.83;;;32.30;99.90;;;;;;4955499;28;20218;-82
2022/07/21 09:53:59;;;;;;;9.87;9.13;;;31.10;99.80;;;;;;4958482;28;20214;-82
2022/07/21 09:56:28;;;;;;;9.90;9.00;;;30.10;99.90;;;;;;4957736;29;20229;-81
2022/07/21 09:58:56;;;;;;;9.50;8.80;;;30.10;99.90;;;;;;4957389;28;20198;-82
2022/07/21 10:01:24;;;;;;;9.50;8.70;;;30.50;99.90;;;;;;4952253;28;20226;-81
2022/07/21 10:03:55;;;;;;;8.80;8.10;;;30.80;99.90;;;;;;4958236;29;20211;-84
2022/07/21 10:06:25;;;;;;;9.97;9.20;;;31.10;99.30;;;;;;4958295;29;20269;-81
2022/07/21 10:08:53;;;;;;;9.30;8.60;;;31.50;99.90;;;;;;4956804;29;20206;-80
2022/07/21 10:11:20;;;;;;;9.60;8.80;;;31.80;98.20;;;;;;4955404;28;20218;-81
2022/07/21 10:13:47;;;;;;;9.70;8.90;;;31.60;99.30;;;;;;4954615;29;20203;-78
2022/07/21 10:16:15;;;;;;;9.27;8.57;;;31.80;98.80;;;;;;4937789;29;20289;-80
2022/07/21 10:18:55;;;;;;;8.60;8.00;;;32.00;98.80;;;;;;4952315;29;20210;-81
2022/07/21 10:21:30;;;;;;;9.30;8.50;;;32.10;98.10;;;;;;4968617;28;20775;-80
2022/07/21 10:23:57;;;;;;;8.57;7.87;;;32.30;98.60;;;;;;4953814;29;20312;-80
2022/07/21 10:26:24;;;;;;;8.00;7.40;;;31.70;97.40;;;;;;4952697;29;20659;-81
2022/07/21 10:28:51;;;;;;;7.40;6.80;;;30.80;98.50;;;;;;4954034;29;20194;-80
2022/07/21 10:31:20;;;;;;;9.20;8.40;;;30.20;99.10;;;;;;4954727;28;20627;-77
2022/07/21 10:34:00;;;;;;;7.80;7.10;;;29.60;99.80;;;;;;4954608;29;20206;-82
2022/07/21 10:36:45;;;;;;;7.77;6.90;;;29.10;99.90;;;;;;4953056;29;20213;-82
2022/07/21 10:39:26;;;;;;;7.23;6.67;;;29.10;99.90;;;;;;4958090;28;20191;-80
2022/07/21 10:41:59;;;;;;;8.73;8.07;;;29.20;99.90;;;;;;4956227;29;20282;-83
2022/07/21 10:44:48;;;;;;;7.80;7.10;;;29.30;99.90;;;;;;4958458;29;20211;-82
2022/07/21 10:47:18;;;;;;;7.67;6.93;;;29.50;99.90;;;;;;4955520;29;20218;-80
2022/07/21 10:49:52;;;;;;;9.80;9.00;;;29.20;99.90;;;;;;4958445;28;20226;-82
2022/07/21 10:52:57;;;;;;;7.53;6.83;;;28.70;99.90;;;;;;4956329;29;20209;-81
2022/07/21 10:55:26;;;;;;;8.60;7.90;;;28.70;99.90;;;;;;4952010;29;20207;-81
2022/07/21 10:58:14;;;;;;;8.30;7.00;;;29.10;99.70;;;;;;4957354;28;20198;-79
2022/07/21 11:00:46;;;;;;;9.47;8.67;;;28.80;99.90;;;;;;4964571;28;20717;-79
2022/07/21 11:03:23;;;;;;;8.53;7.83;;;28.60;99.90;;;;;;4961068;29;20273;-78
2022/07/21 11:06:18;;;;;;;7.57;6.97;;;28.20;99.90;;;;;;4964732;29;20302;-79
2022/07/21 11:08:47;;;;;;;7.53;6.93;;;28.10;99.90;;;;;;4964957;29;20234;-78
2022/07/21 11:11:15;;;;;;;8.90;8.30;;;28.30;99.70;;;;;;4965979;28;20222;-78
2022/07/21 11:14:02;;;;;;;9.17;8.47;;;28.30;99.90;;;;;;4963602;29;20203;-78
2022/07/21 11:17:08;;;;;;;7.13;6.53;;;28.60;99.90;;;;;;4959432;29;20203;-79
2022/07/21 11:19:39;;;;;;;9.03;7.87;;;28.70;99.90;;;;;;4959421;28;20284;-78
2022/07/21 11:22:11;;;;;;;9.20;8.40;;;28.90;99.90;;;;;;4966382;29;20218;-78
2022/07/21 11:24:39;;;;;;;7.37;6.67;;;28.80;98.80;;;;;;4965097;29;20224;-78
2022/07/21 11:27:08;;;;;;;7.30;6.70;;;28.80;99.70;;;;;;4963825;29;20246;-79
2022/07/21 11:29:37;;;;;;;7.10;6.50;;;29.00;99.50;;;;;;4965035;28;20723;-78
2022/07/21 11:32:04;;;;;;;7.30;6.70;;;29.00;99.90;;;;;;4963437;29;20238;-79
2022/07/21 11:34:44;;;;;;;7.47;6.73;;;29.10;99.90;;;;;;4963227;29;20207;-78
2022/07/21 11:37:14;;;;;;;6.97;6.37;;;29.10;99.90;;;;;;4956906;29;20223;-78
2022/07/21 11:39:41;;;;;;;7.70;6.90;;;29.10;99.70;;;;;;4965112;28;20250;-78
2022/07/21 11:42:09;;;;;;;7.20;6.60;;;29.30;99.10;;;;;;4962011;29;20190;-78
2022/07/21 11:44:36;;;;;;;6.80;6.17;;;29.40;99.90;;;;;;4957256;29;20266;-78
2022/07/21 11:47:06;;;;;;;8.00;7.20;;;29.40;99.90;;;;;;4955056;29;20219;-81
2022/07/21 11:49:33;;;;;;;8.17;7.10;;;29.50;99.50;;;;;;4960723;28;20322;-78
2022/07/21 11:52:03;;;;;;;7.90;7.30;;;29.50;99.70;;;;;;4957644;29;20230;-81
2022/07/21 11:54:35;;;;;;;6.77;6.17;;;29.60;99.50;;;;;;4959141;29;20199;-80
2022/07/21 11:57:04;;;;;;;7.40;6.80;;;29.80;99.20;;;;;;4960823;29;20199;-80
2022/07/21 11:59:31;;;;;;;6.77;6.27;;;29.80;97.80;;;;;;4953633;29;20225;-80
2022/07/21 12:02:03;;;;;;;7.37;6.77;;;30.00;98.40;;;;;;4950755;29;20281;-80
2022/07/21 12:04:42;;;;;;;7.80;6.97;;;30.10;96.70;;;;;;4970816;28;20573;-80
2022/07/21 12:07:15;;;;;;;6.60;6.10;;;30.10;97.20;;;;;;4959400;29;20214;-81
2022/07/21 12:09:46;;;;;;;7.50;6.90;;;30.00;96.30;;;;;;4958630;28;20227;-80
2022/07/21 12:12:13;;;;;;;7.77;7.07;;;29.60;98.40;;;;;;4958186;29;20199;-80
2022/07/21 12:14:45;;;;;;;7.93;7.33;;;29.20;98.20;;;;;;4958982;29;20207;-80
2022/07/21 12:17:12;;;;;;;7.40;6.80;;;29.20;97.90;;;;;;4957604;29;20198;-80
2022/07/21 12:19:39;;;;;;;6.70;6.20;;;29.40;97.00;;;;;;4958795;28;20250;-80
2022/07/21 12:22:06;;;;;;;7.00;6.40;;;29.50;96.00;;;;;;4955494;29;20202;-81
2022/07/21 12:24:55;;;;;;;6.90;6.40;;;29.70;97.50;;;;;;4958254;29;20206;-81
2022/07/21 12:27:22;;;;;;;7.43;6.80;;;29.70;97.00;;;;;;4970000;28;20221;-80
2022/07/21 12:29:50;;;;;;;6.97;6.33;;;29.70;97.10;;;;;;4958092;28;20226;-82
2022/07/21 12:32:44;;;;;;;6.87;6.37;;;29.60;96.60;;;;;;4956039;29;20194;-81
2022/07/21 12:35:26;;;;;;;7.80;7.10;;;29.60;98.00;;;;;;4947391;29;20198;-81
2022/07/21 12:38:00;;;;;;;8.50;7.80;;;29.60;97.80;;;;;;4953973;29;20631;-80
2022/07/21 12:40:30;;;;;;;8.70;7.90;;;29.60;98.20;;;;;;4956170;28;20742;-81
2022/07/21 12:43:15;;;;;;;8.20;7.60;;;29.60;97.60;;;;;;4956348;28;20258;-81
2022/07/21 12:45:54;;;;;;;8.33;7.73;;;29.60;96.50;;;;;;4954871;29;20714;-80